sensor_id;sensor_type;location;lat;lon;timestamp;temperature;humidity
9446;DHT22;4761;49.490;10.908;2023-04-01T00:01:04;18.40;52.90
9446;DHT22;4761;49.490;10.908;2023-04-01T00:03:30;18.30;52.80
9446;DHT22;4761;49.490;10.908;2023-04-01T00:05:56;18.30;52.80
9446;DHT22;4761;49.490;10.908;2023-04-01T00:08:23;18.40;52.80
9446;DHT22;4761;49.490;10.908;2023-04-01T00:10:49;18.30;52.80
9446;DHT22;4761;49.490;10.908;2023-04-01T00:13:14;18.40;52.80
9446;DHT22;4761;49.490;10.908;2023-04-01T00:15:41;18.40;52.70
9446;DHT22;4761;49.490;10.908;2023-04-01T00:18:07;18.30;52.70
9446;DHT22;4761;49.490;10.908;2023-04-01T00:20:33;18.30;52.70
9446;DHT22;4761;49.490;10.908;2023-04-01T00:22:58;18.40;52.70
9446;DHT22;4761;49.490;10.908;2023-04-01T00:25:24;18.30;52.70
9446;DHT22;4761;49.490;10.908;2023-04-01T00:27:50;18.40;52.70
9446;DHT22;4761;49.490;10.908;2023-04-01T00:30:16;18.40;52.60
9446;DHT22;4761;49.490;10.908;2023-04-01T00:32:42;18.40;52.50
9446;DHT22;4761;49.490;10.908;2023-04-01T00:35:08;18.30;52.40
9446;DHT22;4761;49.490;10.908;2023-04-01T00:37:35;18.30;52.50
9446;DHT22;4761;49.490;10.908;2023-04-01T00:40:03;18.30;53.00
9446;DHT22;4761;49.490;10.908;2023-04-01T00:42:29;18.30;52.40
9446;DHT22;4761;49.490;10.908;2023-04-01T00:44:55;18.30;52.40
9446;DHT22;4761;49.490;10.908;2023-04-01T00:47:22;18.30;52.40
9446;DHT22;4761;49.490;10.908;2023-04-01T00:49:51;18.30;52.30
9446;DHT22;4761;49.490;10.908;2023-04-01T00:52:26;18.30;52.30
9446;DHT22;4761;49.490;10.908;2023-04-01T00:54:56;18.30;52.30
9446;DHT22;4761;49.490;10.908;2023-04-01T00:57:29;18.30;52.40
9446;DHT22;4761;49.490;10.908;2023-04-01T00:59:56;18.30;52.30
9446;DHT22;4761;49.490;10.908;2023-04-01T01:02:22;18.30;52.20
9446;DHT22;4761;49.490;10.908;2023-04-01T01:04:48;18.30;52.70
9446;DHT22;4761;49.490;10.908;2023-04-01T01:10:16;18.30;52.10
9446;DHT22;4761;49.490;10.908;2023-04-01T01:12:59;18.30;52.10
9446;DHT22;4761;49.490;10.908;2023-04-01T01:15:36;18.30;52.00
9446;DHT22;4761;49.490;10.908;2023-04-01T01:18:30;18.30;52.10
9446;DHT22;4761;49.490;10.908;2023-04-01T01:26:42;18.30;51.90
9446;DHT22;4761;49.490;10.908;2023-04-01T01:31:57;18.30;51.80
9446;DHT22;4761;49.490;10.908;2023-04-01T01:37:01;18.30;51.80
9446;DHT22;4761;49.490;10.908;2023-04-01T01:39:31;18.30;51.90
9446;DHT22;4761;49.490;10.908;2023-04-01T01:42:03;18.30;51.80
9446;DHT22;4761;49.490;10.908;2023-04-01T01:44:30;18.30;51.70
9446;DHT22;4761;49.490;10.908;2023-04-01T01:46:57;18.30;51.70
9446;DHT22;4761;49.490;10.908;2023-04-01T01:49:23;18.30;51.70
9446;DHT22;4761;49.490;10.908;2023-04-01T01:51:49;18.30;51.60
9446;DHT22;4761;49.490;10.908;2023-04-01T01:54:16;18.30;51.50
9446;DHT22;4761;49.490;10.908;2023-04-01T01:56:46;18.30;51.60
9446;DHT22;4761;49.490;10.908;2023-04-01T01:59:14;18.30;51.50
9446;DHT22;4761;49.490;10.908;2023-04-01T02:01:43;18.30;51.50
9446;DHT22;4761;49.490;10.908;2023-04-01T02:04:11;18.30;51.50
9446;DHT22;4761;49.490;10.908;2023-04-01T02:06:41;18.30;51.50
9446;DHT22;4761;49.490;10.908;2023-04-01T02:09:09;18.30;51.50
9446;DHT22;4761;49.490;10.908;2023-04-01T02:11:47;18.30;51.50
9446;DHT22;4761;49.490;10.908;2023-04-01T02:14:21;18.30;51.40
9446;DHT22;4761;49.490;10.908;2023-04-01T02:17:02;18.30;51.40
9446;DHT22;4761;49.490;10.908;2023-04-01T02:19:34;18.30;51.40
9446;DHT22;4761;49.490;10.908;2023-04-01T02:22:03;18.30;51.40
9446;DHT22;4761;49.490;10.908;2023-04-01T02:24:32;18.30;51.30
9446;DHT22;4761;49.490;10.908;2023-04-01T02:26:59;18.30;51.30
9446;DHT22;4761;49.490;10.908;2023-04-01T02:29:25;18.30;51.30
9446;DHT22;4761;49.490;10.908;2023-04-01T02:31:52;18.30;51.20
9446;DHT22;4761;49.490;10.908;2023-04-01T02:34:19;18.30;51.30
9446;DHT22;4761;49.490;10.908;2023-04-01T02:36:47;18.30;51.20
9446;DHT22;4761;49.490;10.908;2023-04-01T02:39:13;18.30;51.20
9446;DHT22;4761;49.490;10.908;2023-04-01T02:41:40;18.30;51.20
9446;DHT22;4761;49.490;10.908;2023-04-01T02:44:07;18.30;51.20
9446;DHT22;4761;49.490;10.908;2023-04-01T02:46:32;18.30;51.10
9446;DHT22;4761;49.490;10.908;2023-04-01T02:48:58;18.40;51.10
9446;DHT22;4761;49.490;10.908;2023-04-01T02:51:25;18.40;51.00
9446;DHT22;4761;49.490;10.908;2023-04-01T02:53:50;18.40;51.00
9446;DHT22;4761;49.490;10.908;2023-04-01T02:56:16;18.40;51.00
9446;DHT22;4761;49.490;10.908;2023-04-01T02:58:41;18.30;50.90
9446;DHT22;4761;49.490;10.908;2023-04-01T03:01:07;18.30;50.90
9446;DHT22;4761;49.490;10.908;2023-04-01T03:03:33;18.30;50.90
9446;DHT22;4761;49.490;10.908;2023-04-01T03:06:05;18.30;50.90
9446;DHT22;4761;49.490;10.908;2023-04-01T03:08:31;18.30;50.90
9446;DHT22;4761;49.490;10.908;2023-04-01T03:10:56;18.30;51.00
9446;DHT22;4761;49.490;10.908;2023-04-01T03:13:22;18.30;50.90
9446;DHT22;4761;49.490;10.908;2023-04-01T03:15:47;18.30;50.90
9446;DHT22;4761;49.490;10.908;2023-04-01T03:18:13;18.30;50.80
9446;DHT22;4761;49.490;10.908;2023-04-01T03:20:38;18.30;50.80
9446;DHT22;4761;49.490;10.908;2023-04-01T03:23:04;18.30;50.80
9446;DHT22;4761;49.490;10.908;2023-04-01T03:25:29;18.30;50.80
9446;DHT22;4761;49.490;10.908;2023-04-01T03:27:56;18.30;50.90
9446;DHT22;4761;49.490;10.908;2023-04-01T03:30:21;18.30;50.70
9446;DHT22;4761;49.490;10.908;2023-04-01T03:32:47;18.30;50.80
9446;DHT22;4761;49.490;10.908;2023-04-01T03:35:12;18.30;50.70
9446;DHT22;4761;49.490;10.908;2023-04-01T03:37:38;18.30;50.80
9446;DHT22;4761;49.490;10.908;2023-04-01T03:40:04;18.30;50.70
9446;DHT22;4761;49.490;10.908;2023-04-01T03:42:30;18.30;50.70
9446;DHT22;4761;49.490;10.908;2023-04-01T03:44:57;18.30;50.70
9446;DHT22;4761;49.490;10.908;2023-04-01T03:47:23;18.30;50.70
9446;DHT22;4761;49.490;10.908;2023-04-01T03:49:48;18.30;50.60
9446;DHT22;4761;49.490;10.908;2023-04-01T03:52:14;18.30;50.60
9446;DHT22;4761;49.490;10.908;2023-04-01T03:54:39;18.30;50.50
9446;DHT22;4761;49.490;10.908;2023-04-01T03:57:05;18.30;50.50
9446;DHT22;4761;49.490;10.908;2023-04-01T03:59:30;18.30;50.60
9446;DHT22;4761;49.490;10.908;2023-04-01T04:01:56;18.30;50.60
9446;DHT22;4761;49.490;10.908;2023-04-01T04:04:21;18.30;50.50
9446;DHT22;4761;49.490;10.908;2023-04-01T04:06:47;18.30;50.40
9446;DHT22;4761;49.490;10.908;2023-04-01T04:09:13;18.40;50.40
9446;DHT22;4761;49.490;10.908;2023-04-01T04:11:39;18.40;50.30
9446;DHT22;4761;49.490;10.908;2023-04-01T04:14:04;18.40;50.30
9446;DHT22;4761;49.490;10.908;2023-04-01T04:16:30;18.40;50.10
9446;DHT22;4761;49.490;10.908;2023-04-01T04:18:56;18.40;50.00
9446;DHT22;4761;49.490;10.908;2023-04-01T04:21:22;18.40;49.90
9446;DHT22;4761;49.490;10.908;2023-04-01T04:23:47;18.50;50.00
9446;DHT22;4761;49.490;10.908;2023-04-01T04:26:14;18.40;49.90
9446;DHT22;4761;49.490;10.908;2023-04-01T04:28:40;18.40;49.90
9446;DHT22;4761;49.490;10.908;2023-04-01T04:31:06;18.40;49.80
9446;DHT22;4761;49.490;10.908;2023-04-01T04:33:33;18.40;49.80
9446;DHT22;4761;49.490;10.908;2023-04-01T04:35:59;18.30;49.90
9446;DHT22;4761;49.490;10.908;2023-04-01T04:38:25;18.40;49.90
9446;DHT22;4761;49.490;10.908;2023-04-01T04:40:51;18.40;49.90
9446;DHT22;4761;49.490;10.908;2023-04-01T04:43:18;18.40;49.90
9446;DHT22;4761;49.490;10.908;2023-04-01T04:45:44;18.40;49.80
9446;DHT22;4761;49.490;10.908;2023-04-01T04:48:14;18.40;49.80
9446;DHT22;4761;49.490;10.908;2023-04-01T04:50:47;18.40;49.80
9446;DHT22;4761;49.490;10.908;2023-04-01T04:53:15;18.40;49.80
9446;DHT22;4761;49.490;10.908;2023-04-01T04:55:48;18.30;49.80
9446;DHT22;4761;49.490;10.908;2023-04-01T04:58:14;18.30;49.80
9446;DHT22;4761;49.490;10.908;2023-04-01T05:00:40;18.30;49.90
9446;DHT22;4761;49.490;10.908;2023-04-01T05:03:07;18.30;49.80
9446;DHT22;4761;49.490;10.908;2023-04-01T05:05:33;18.30;49.80
9446;DHT22;4761;49.490;10.908;2023-04-01T05:07:59;18.30;49.80
9446;DHT22;4761;49.490;10.908;2023-04-01T05:10:24;18.30;49.70
9446;DHT22;4761;49.490;10.908;2023-04-01T05:12:50;18.30;49.80
9446;DHT22;4761;49.490;10.908;2023-04-01T05:15:15;18.30;49.70
9446;DHT22;4761;49.490;10.908;2023-04-01T05:17:41;18.30;49.70
9446;DHT22;4761;49.490;10.908;2023-04-01T05:20:07;18.30;49.70
9446;DHT22;4761;49.490;10.908;2023-04-01T05:22:32;18.30;49.60
9446;DHT22;4761;49.490;10.908;2023-04-01T05:24:58;18.30;49.60
9446;DHT22;4761;49.490;10.908;2023-04-01T05:27:23;18.30;49.60
9446;DHT22;4761;49.490;10.908;2023-04-01T05:29:49;18.30;49.70
9446;DHT22;4761;49.490;10.908;2023-04-01T05:32:15;18.30;49.70
9446;DHT22;4761;49.490;10.908;2023-04-01T05:34:40;18.20;49.60
9446;DHT22;4761;49.490;10.908;2023-04-01T05:37:06;18.20;49.70
9446;DHT22;4761;49.490;10.908;2023-04-01T05:39:38;18.20;49.70
9446;DHT22;4761;49.490;10.908;2023-04-01T05:42:06;18.30;49.80
9446;DHT22;4761;49.490;10.908;2023-04-01T05:44:33;18.30;49.70
9446;DHT22;4761;49.490;10.908;2023-04-01T05:46:58;18.20;49.60
9446;DHT22;4761;49.490;10.908;2023-04-01T05:49:24;18.20;49.60
9446;DHT22;4761;49.490;10.908;2023-04-01T05:51:49;18.20;49.70
9446;DHT22;4761;49.490;10.908;2023-04-01T05:54:16;18.20;49.60
9446;DHT22;4761;49.490;10.908;2023-04-01T05:56:42;18.20;49.60
9446;DHT22;4761;49.490;10.908;2023-04-01T05:59:10;18.20;49.60
9446;DHT22;4761;49.490;10.908;2023-04-01T06:01:36;18.20;49.50
9446;DHT22;4761;49.490;10.908;2023-04-01T06:04:01;18.20;49.50
9446;DHT22;4761;49.490;10.908;2023-04-01T06:06:28;18.20;49.50
9446;DHT22;4761;49.490;10.908;2023-04-01T06:08:57;18.20;49.60
9446;DHT22;4761;49.490;10.908;2023-04-01T06:11:38;18.20;49.60
9446;DHT22;4761;49.490;10.908;2023-04-01T06:25:54;18.20;49.60
9446;DHT22;4761;49.490;10.908;2023-04-01T06:28:35;18.20;49.50
9446;DHT22;4761;49.490;10.908;2023-04-01T06:34:32;17.90;47.30
9446;DHT22;4761;49.490;10.908;2023-04-01T06:53:36;18.30;45.60
9446;DHT22;4761;49.490;10.908;2023-04-01T06:58:21;18.40;45.10
9446;DHT22;4761;49.490;10.908;2023-04-01T07:00:50;18.50;44.80
9446;DHT22;4761;49.490;10.908;2023-04-01T07:03:33;18.50;44.70
9446;DHT22;4761;49.490;10.908;2023-04-01T07:06:05;18.50;44.50
9446;DHT22;4761;49.490;10.908;2023-04-01T07:08:35;18.60;44.40
9446;DHT22;4761;49.490;10.908;2023-04-01T07:11:04;18.60;44.30
9446;DHT22;4761;49.490;10.908;2023-04-01T07:13:39;18.60;44.00
9446;DHT22;4761;49.490;10.908;2023-04-01T07:16:32;18.70;43.90
9446;DHT22;4761;49.490;10.908;2023-04-01T07:19:12;18.70;43.70
9446;DHT22;4761;49.490;10.908;2023-04-01T07:21:47;18.70;43.60
9446;DHT22;4761;49.490;10.908;2023-04-01T07:24:29;18.80;43.70
9446;DHT22;4761;49.490;10.908;2023-04-01T07:26:57;18.80;43.60
9446;DHT22;4761;49.490;10.908;2023-04-01T07:29:25;18.80;43.50
9446;DHT22;4761;49.490;10.908;2023-04-01T07:31:55;18.80;43.20
9446;DHT22;4761;49.490;10.908;2023-04-01T07:37:20;18.90;43.00
9446;DHT22;4761;49.490;10.908;2023-04-01T07:39:57;18.90;42.90
9446;DHT22;4761;49.490;10.908;2023-04-01T07:48:14;18.90;42.40
9446;DHT22;4761;49.490;10.908;2023-04-01T08:07:15;19.20;46.40
9446;DHT22;4761;49.490;10.908;2023-04-01T08:15:26;18.90;46.90
9446;DHT22;4761;49.490;10.908;2023-04-01T08:20:46;18.80;47.30
9446;DHT22;4761;49.490;10.908;2023-04-01T08:23:19;18.80;47.50
9446;DHT22;4761;49.490;10.908;2023-04-01T08:26:02;18.70;47.60
9446;DHT22;4761;49.490;10.908;2023-04-01T08:28:32;18.70;47.70
9446;DHT22;4761;49.490;10.908;2023-04-01T08:31:07;18.70;47.70
9446;DHT22;4761;49.490;10.908;2023-04-01T08:33:34;18.60;47.70
9446;DHT22;4761;49.490;10.908;2023-04-01T08:36:09;18.70;47.90
9446;DHT22;4761;49.490;10.908;2023-04-01T08:44:45;18.60;48.00
9446;DHT22;4761;49.490;10.908;2023-04-01T08:48:04;18.60;48.70
9446;DHT22;4761;49.490;10.908;2023-04-01T08:50:43;18.60;48.10
9446;DHT22;4761;49.490;10.908;2023-04-01T08:58:59;18.50;48.10
9446;DHT22;4761;49.490;10.908;2023-04-01T09:01:55;18.50;48.10
9446;DHT22;4761;49.490;10.908;2023-04-01T09:04:31;18.50;48.70
9446;DHT22;4761;49.490;10.908;2023-04-01T09:13:37;18.50;48.20
9446;DHT22;4761;49.490;10.908;2023-04-01T09:16:44;18.40;48.20
9446;DHT22;4761;49.490;10.908;2023-04-01T09:19:24;18.40;48.20
9446;DHT22;4761;49.490;10.908;2023-04-01T09:27:54;18.40;48.40
9446;DHT22;4761;49.490;10.908;2023-04-01T09:33:11;18.40;48.40
9446;DHT22;4761;49.490;10.908;2023-04-01T09:36:12;18.50;48.50
9446;DHT22;4761;49.490;10.908;2023-04-01T09:38:57;18.40;48.40
9446;DHT22;4761;49.490;10.908;2023-04-01T09:47:00;18.50;48.60
9446;DHT22;4761;49.490;10.908;2023-04-01T09:53:02;18.40;48.70
9446;DHT22;4761;49.490;10.908;2023-04-01T09:58:00;18.40;48.70
9446;DHT22;4761;49.490;10.908;2023-04-01T10:00:51;18.40;48.80
9446;DHT22;4761;49.490;10.908;2023-04-01T10:26:01;18.30;49.60
9446;DHT22;4761;49.490;10.908;2023-04-01T10:46:36;18.20;50.20
9446;DHT22;4761;49.490;10.908;2023-04-01T10:49:39;18.20;50.20
9446;DHT22;4761;49.490;10.908;2023-04-01T10:55:35;18.20;50.40
9446;DHT22;4761;49.490;10.908;2023-04-01T11:12:53;18.20;50.60
9446;DHT22;4761;49.490;10.908;2023-04-01T11:15:49;18.20;50.60
9446;DHT22;4761;49.490;10.908;2023-04-01T11:18:56;18.20;50.60
9446;DHT22;4761;49.490;10.908;2023-04-01T11:26:52;18.20;50.70
9446;DHT22;4761;49.490;10.908;2023-04-01T11:29:36;18.20;50.70
9446;DHT22;4761;49.490;10.908;2023-04-01T11:32:28;18.20;50.70
9446;DHT22;4761;49.490;10.908;2023-04-01T11:38:07;18.20;50.70
9446;DHT22;4761;49.490;10.908;2023-04-01T11:40:58;18.20;50.70
9446;DHT22;4761;49.490;10.908;2023-04-01T11:43:37;18.20;50.70
9446;DHT22;4761;49.490;10.908;2023-04-01T11:46:12;18.20;50.80
9446;DHT22;4761;49.490;10.908;2023-04-01T11:48:49;18.20;50.80
9446;DHT22;4761;49.490;10.908;2023-04-01T11:51:29;18.20;50.80
9446;DHT22;4761;49.490;10.908;2023-04-01T12:11:35;18.20;51.00
9446;DHT22;4761;49.490;10.908;2023-04-01T12:14:27;18.20;51.20
9446;DHT22;4761;49.490;10.908;2023-04-01T12:17:33;18.20;51.20
9446;DHT22;4761;49.490;10.908;2023-04-01T12:26:31;18.20;51.20
9446;DHT22;4761;49.490;10.908;2023-04-01T12:32:02;18.20;51.10
9446;DHT22;4761;49.490;10.908;2023-04-01T12:34:43;18.30;51.20
9446;DHT22;4761;49.490;10.908;2023-04-01T12:57:27;18.40;50.50
9446;DHT22;4761;49.490;10.908;2023-04-01T13:00:30;18.30;50.60
9446;DHT22;4761;49.490;10.908;2023-04-01T13:03:36;18.40;50.80
9446;DHT22;4761;49.490;10.908;2023-04-01T13:15:05;18.40;50.90
9446;DHT22;4761;49.490;10.908;2023-04-01T13:17:36;18.40;50.90
9446;DHT22;4761;49.490;10.908;2023-04-01T13:31:37;18.30;51.10
9446;DHT22;4761;49.490;10.908;2023-04-01T13:36:44;18.30;51.20
9446;DHT22;4761;49.490;10.908;2023-04-01T13:39:55;18.30;51.20
9446;DHT22;4761;49.490;10.908;2023-04-01T13:42:38;18.30;51.10
9446;DHT22;4761;49.490;10.908;2023-04-01T13:45:23;18.40;51.30
9446;DHT22;4761;49.490;10.908;2023-04-01T14:02:49;18.30;51.60
9446;DHT22;4761;49.490;10.908;2023-04-01T14:13:48;18.30;51.60
9446;DHT22;4761;49.490;10.908;2023-04-01T14:21:41;18.20;51.50
9446;DHT22;4761;49.490;10.908;2023-04-01T14:45:55;18.20;51.70
9446;DHT22;4761;49.490;10.908;2023-04-01T14:51:23;18.20;51.70
9446;DHT22;4761;49.490;10.908;2023-04-01T14:54:21;18.20;51.70
9446;DHT22;4761;49.490;10.908;2023-04-01T14:57:12;18.20;51.80
9446;DHT22;4761;49.490;10.908;2023-04-01T14:59:47;18.10;51.70
9446;DHT22;4761;49.490;10.908;2023-04-01T15:07:41;18.30;51.90
9446;DHT22;4761;49.490;10.908;2023-04-01T15:21:44;18.40;51.50
9446;DHT22;4761;49.490;10.908;2023-04-01T15:34:50;18.40;51.40
9446;DHT22;4761;49.490;10.908;2023-04-01T15:37:36;18.40;51.30
9446;DHT22;4761;49.490;10.908;2023-04-01T15:40:30;18.50;51.40
9446;DHT22;4761;49.490;10.908;2023-04-01T15:43:13;18.50;51.30
9446;DHT22;4761;49.490;10.908;2023-04-01T15:57:09;18.40;51.30
9446;DHT22;4761;49.490;10.908;2023-04-01T16:00:00;18.40;51.30
9446;DHT22;4761;49.490;10.908;2023-04-01T16:02:51;18.40;51.30
9446;DHT22;4761;49.490;10.908;2023-04-01T16:05:36;18.40;51.30
9446;DHT22;4761;49.490;10.908;2023-04-01T16:19:03;18.30;51.50
9446;DHT22;4761;49.490;10.908;2023-04-01T16:21:50;18.30;51.50
9446;DHT22;4761;49.490;10.908;2023-04-01T16:24:46;18.30;51.50
9446;DHT22;4761;49.490;10.908;2023-04-01T16:27:44;18.40;51.50
9446;DHT22;4761;49.490;10.908;2023-04-01T16:30:32;18.40;51.50
9446;DHT22;4761;49.490;10.908;2023-04-01T16:33:03;18.30;51.40
9446;DHT22;4761;49.490;10.908;2023-04-01T16:35:41;18.30;51.40
9446;DHT22;4761;49.490;10.908;2023-04-01T16:43:51;18.30;51.50
9446;DHT22;4761;49.490;10.908;2023-04-01T16:46:38;18.30;51.50
9446;DHT22;4761;49.490;10.908;2023-04-01T16:51:54;18.30;51.40
9446;DHT22;4761;49.490;10.908;2023-04-01T16:54:52;18.30;51.50
9446;DHT22;4761;49.490;10.908;2023-04-01T16:57:28;18.30;51.40
9446;DHT22;4761;49.490;10.908;2023-04-01T17:00:09;18.30;51.50
9446;DHT22;4761;49.490;10.908;2023-04-01T17:03:31;18.30;51.50
9446;DHT22;4761;49.490;10.908;2023-04-01T17:06:07;18.30;51.50
9446;DHT22;4761;49.490;10.908;2023-04-01T17:11:40;18.30;51.50
9446;DHT22;4761;49.490;10.908;2023-04-01T17:14:19;18.30;51.50
9446;DHT22;4761;49.490;10.908;2023-04-01T17:17:23;18.30;51.60
9446;DHT22;4761;49.490;10.908;2023-04-01T17:20:24;18.30;51.50
9446;DHT22;4761;49.490;10.908;2023-04-01T17:28:36;18.30;51.60
9446;DHT22;4761;49.490;10.908;2023-04-01T17:34:03;18.20;51.50
9446;DHT22;4761;49.490;10.908;2023-04-01T17:56:12;18.20;51.50
9446;DHT22;4761;49.490;10.908;2023-04-01T17:58:52;18.30;51.60
9446;DHT22;4761;49.490;10.908;2023-04-01T18:04:26;18.20;51.40
9446;DHT22;4761;49.490;10.908;2023-04-01T18:10:15;18.30;51.40
9446;DHT22;4761;49.490;10.908;2023-04-01T18:15:42;18.20;51.40
9446;DHT22;4761;49.490;10.908;2023-04-01T18:18:31;18.20;51.40
9446;DHT22;4761;49.490;10.908;2023-04-01T18:23:36;18.20;51.30
9446;DHT22;4761;49.490;10.908;2023-04-01T18:26:18;18.20;51.30
9446;DHT22;4761;49.490;10.908;2023-04-01T18:29:10;18.20;51.30
9446;DHT22;4761;49.490;10.908;2023-04-01T18:31:43;18.20;51.30
9446;DHT22;4761;49.490;10.908;2023-04-01T18:34:20;18.20;51.30
9446;DHT22;4761;49.490;10.908;2023-04-01T18:37:02;18.20;51.30
9446;DHT22;4761;49.490;10.908;2023-04-01T18:39:36;18.30;51.30
9446;DHT22;4761;49.490;10.908;2023-04-01T18:45:20;18.30;51.10
9446;DHT22;4761;49.490;10.908;2023-04-01T18:48:04;18.30;51.10
9446;DHT22;4761;49.490;10.908;2023-04-01T18:50:58;18.20;51.00
9446;DHT22;4761;49.490;10.908;2023-04-01T18:53:45;18.30;51.20
9446;DHT22;4761;49.490;10.908;2023-04-01T19:01:40;18.20;51.10
9446;DHT22;4761;49.490;10.908;2023-04-01T19:04:28;18.20;51.00
9446;DHT22;4761;49.490;10.908;2023-04-01T19:06:58;18.20;51.10
9446;DHT22;4761;49.490;10.908;2023-04-01T19:12:15;18.20;51.10
9446;DHT22;4761;49.490;10.908;2023-04-01T19:15:09;18.20;51.00
9446;DHT22;4761;49.490;10.908;2023-04-01T19:17:54;18.20;51.00
9446;DHT22;4761;49.490;10.908;2023-04-01T19:20:34;18.20;51.00
9446;DHT22;4761;49.490;10.908;2023-04-01T19:25:43;18.20;51.00
9446;DHT22;4761;49.490;10.908;2023-04-01T19:28:28;18.20;51.00
9446;DHT22;4761;49.490;10.908;2023-04-01T19:31:02;18.20;51.00
9446;DHT22;4761;49.490;10.908;2023-04-01T19:36:52;18.20;50.90
9446;DHT22;4761;49.490;10.908;2023-04-01T19:50:30;18.20;50.90
9446;DHT22;4761;49.490;10.908;2023-04-01T19:53:52;18.20;50.80
9446;DHT22;4761;49.490;10.908;2023-04-01T19:56:15;18.20;50.80
9446;DHT22;4761;49.490;10.908;2023-04-01T20:01:25;18.20;50.90
9446;DHT22;4761;49.490;10.908;2023-04-01T20:03:58;18.20;50.80
9446;DHT22;4761;49.490;10.908;2023-04-01T20:14:32;18.20;50.70
9446;DHT22;4761;49.490;10.908;2023-04-01T20:17:23;18.20;50.70
9446;DHT22;4761;49.490;10.908;2023-04-01T20:25:22;18.30;50.50
9446;DHT22;4761;49.490;10.908;2023-04-01T20:30:55;18.40;50.90
9446;DHT22;4761;49.490;10.908;2023-04-01T20:33:42;18.40;50.40
9446;DHT22;4761;49.490;10.908;2023-04-01T20:36:16;18.40;50.40
9446;DHT22;4761;49.490;10.908;2023-04-01T20:41:28;18.40;50.40
9446;DHT22;4761;49.490;10.908;2023-04-01T20:44:10;18.40;50.40
9446;DHT22;4761;49.490;10.908;2023-04-01T20:49:23;18.40;51.00
9446;DHT22;4761;49.490;10.908;2023-04-01T20:54:49;18.30;50.30
9446;DHT22;4761;49.490;10.908;2023-04-01T20:57:35;18.30;50.30
9446;DHT22;4761;49.490;10.908;2023-04-01T21:00:34;18.40;50.40
9446;DHT22;4761;49.490;10.908;2023-04-01T21:03:12;18.40;50.40
9446;DHT22;4761;49.490;10.908;2023-04-01T21:05:59;18.40;50.40
9446;DHT22;4761;49.490;10.908;2023-04-01T21:13:33;18.30;50.40
9446;DHT22;4761;49.490;10.908;2023-04-01T21:19:07;18.30;50.40
9446;DHT22;4761;49.490;10.908;2023-04-01T21:32:45;18.30;50.30
9446;DHT22;4761;49.490;10.908;2023-04-01T21:38:11;18.30;50.30
9446;DHT22;4761;49.490;10.908;2023-04-01T21:40:57;18.30;50.40
9446;DHT22;4761;49.490;10.908;2023-04-01T21:52:24;18.30;50.40
9446;DHT22;4761;49.490;10.908;2023-04-01T21:57:54;18.30;50.30
9446;DHT22;4761;49.490;10.908;2023-04-01T22:00:38;18.30;50.30
9446;DHT22;4761;49.490;10.908;2023-04-01T22:06:24;18.30;50.60
9446;DHT22;4761;49.490;10.908;2023-04-01T22:09:09;18.30;50.20
9446;DHT22;4761;49.490;10.908;2023-04-01T22:11:54;18.30;50.30
9446;DHT22;4761;49.490;10.908;2023-04-01T22:14:27;18.30;50.30
9446;DHT22;4761;49.490;10.908;2023-04-01T22:16:58;18.30;50.30
9446;DHT22;4761;49.490;10.908;2023-04-01T22:19:55;18.30;50.30
9446;DHT22;4761;49.490;10.908;2023-04-01T22:25:22;18.30;50.20
9446;DHT22;4761;49.490;10.908;2023-04-01T22:30:39;18.30;50.20
9446;DHT22;4761;49.490;10.908;2023-04-01T22:33:44;18.30;50.10
9446;DHT22;4761;49.490;10.908;2023-04-01T22:36:30;18.30;50.20
9446;DHT22;4761;49.490;10.908;2023-04-01T22:39:20;18.30;50.30
9446;DHT22;4761;49.490;10.908;2023-04-01T22:41:55;18.30;50.30
9446;DHT22;4761;49.490;10.908;2023-04-01T22:44:33;18.20;50.20
9446;DHT22;4761;49.490;10.908;2023-04-01T22:47:16;18.30;50.30
9446;DHT22;4761;49.490;10.908;2023-04-01T22:50:05;18.30;50.20
9446;DHT22;4761;49.490;10.908;2023-04-01T22:52:45;18.30;50.20
9446;DHT22;4761;49.490;10.908;2023-04-01T22:57:55;18.30;50.20
9446;DHT22;4761;49.490;10.908;2023-04-01T23:00:34;18.30;50.10
9446;DHT22;4761;49.490;10.908;2023-04-01T23:03:07;18.30;50.20
9446;DHT22;4761;49.490;10.908;2023-04-01T23:05:36;18.30;50.20
9446;DHT22;4761;49.490;10.908;2023-04-01T23:11:37;18.30;50.20
9446;DHT22;4761;49.490;10.908;2023-04-01T23:16:57;18.30;50.10
9446;DHT22;4761;49.490;10.908;2023-04-01T23:19:41;18.20;50.10
9446;DHT22;4761;49.490;10.908;2023-04-01T23:22:41;18.20;50.10
9446;DHT22;4761;49.490;10.908;2023-04-01T23:28:17;18.20;50.00
9446;DHT22;4761;49.490;10.908;2023-04-01T23:33:20;18.20;50.10
9446;DHT22;4761;49.490;10.908;2023-04-01T23:36:10;18.20;50.10
9446;DHT22;4761;49.490;10.908;2023-04-01T23:38:40;18.20;50.00
9446;DHT22;4761;49.490;10.908;2023-04-01T23:41:30;18.20;50.00
9446;DHT22;4761;49.490;10.908;2023-04-01T23:44:08;18.20;50.10
9446;DHT22;4761;49.490;10.908;2023-04-01T23:46:35;18.30;50.10
9446;DHT22;4761;49.490;10.908;2023-04-01T23:49:03;18.30;50.10
9446;DHT22;4761;49.490;10.908;2023-04-01T23:51:39;18.30;50.10
9446;DHT22;4761;49.490;10.908;2023-04-01T23:54:19;18.20;50.00
9446;DHT22;4761;49.490;10.908;2023-04-01T23:56:51;18.20;50.00
9446;DHT22;4761;49.490;10.908;2023-04-01T23:59:22;18.30;50.10
